Echo, Utah
Current Conditions -  °F | °C
As of 6:58 AM on Saturday 22 Nov 2014 (Local Time) from KHIF Reporting Station
Overcast Overcast  
Wind Chill: 38°   Ceiling: 6000
Heat Index: 45°   Visibility: 10mi
Dew Point: 24°   Wind: 18mph
Humidity: 44%   Direction: 180°S
Pressure: 29.86"   Gusts: NA
Location:  40.98°N, 111.45°W
Report Text: KHIF 221358Z AUTO 18016KT 10SM OVC060 07/M04 A2986 RMK AO2 SLP103 T00741042
Loading
Personal Weather Stations






























Interactive Weather Map New forecast layout! Learn more

10-Day Weather Forecast

Advertisements
Track Severe Weather on mobile